Time;durP1;ratioP1;P1;durP2;ratioP2;P2;SDS_P1;SDS_P2;PMS_P1;PMS_P2;Temp;Humidity;BMP_temperature;BMP_pressure;BME280_temperature;BME280_humidity;BME280_pressure;Samples;Min_cycle;Max_cycle;Signal;HPM_P1;HPM_P2
2024/01/09 00:01:42;;;;;;;5.95;3.67;;;;;;;-2.36;35.86;102828.00;4951761;28;20039;-74
2024/01/09 00:04:10;;;;;;;7.20;3.90;;;;;;;-2.38;36.16;102827.16;4955853;28;20081;-74
2024/01/09 00:06:38;;;;;;;7.18;4.10;;;;;;;-2.37;36.33;102831.63;4957063;28;20137;-75
2024/01/09 00:09:06;;;;;;;7.63;4.40;;;;;;;-2.36;36.22;102836.03;4977248;28;20102;-74
2024/01/09 00:11:34;;;;;;;7.53;4.30;;;;;;;-2.38;36.34;102818.19;4970132;28;20043;-75
2024/01/09 00:16:58;;;;;;;7.38;4.28;;;;;;;-2.39;36.22;102829.81;4968260;28;20129;-75
2024/01/09 00:19:26;;;;;;;8.48;4.32;;;;;;;-2.39;36.26;102830.72;4960412;28;20046;-75
2024/01/09 00:21:56;;;;;;;8.13;4.05;;;;;;;-2.38;36.43;102828.94;4952353;28;20134;-75
2024/01/09 00:24:24;;;;;;;9.27;4.57;;;;;;;-2.40;36.59;102826.25;4967805;28;20102;-75
2024/01/09 00:26:52;;;;;;;7.10;4.13;;;;;;;-2.37;36.25;102822.66;4965653;28;20047;-75
2024/01/09 00:29:20;;;;;;;7.75;4.45;;;;;;;-2.36;36.26;102829.78;4952284;28;20127;-75
2024/01/09 00:31:48;;;;;;;8.02;3.92;;;;;;;-2.35;36.30;102834.25;4951969;28;20090;-75
2024/01/09 00:34:18;;;;;;;7.22;4.28;;;;;;;-2.35;36.61;102827.09;4953984;28;20038;-75
2024/01/09 00:36:46;;;;;;;8.98;4.45;;;;;;;-2.36;36.47;102822.63;4969374;28;20054;-75
2024/01/09 00:39:14;;;;;;;7.72;4.28;;;;;;;-2.36;36.66;102821.75;4970369;28;20046;-76
2024/01/09 00:41:42;;;;;;;7.38;4.45;;;;;;;-2.35;36.50;102818.16;4970213;28;20101;-75
2024/01/09 00:44:10;;;;;;;8.05;4.53;;;;;;;-2.35;36.43;102827.09;4948800;28;20070;-75
2024/01/09 00:46:38;;;;;;;7.70;4.35;;;;;;;-2.36;36.43;102825.31;4963961;28;20139;-75
2024/01/09 00:49:06;;;;;;;8.23;4.00;;;;;;;-2.37;36.20;102834.28;4963292;28;20043;-75
2024/01/09 00:51:36;;;;;;;6.65;4.20;;;;;;;-2.36;36.54;102828.00;4950160;28;20042;-76
2024/01/09 00:54:04;;;;;;;6.65;4.03;;;;;;;-2.35;36.64;102826.22;4967117;28;20050;-75
2024/01/09 00:56:32;;;;;;;7.38;3.88;;;;;;;-2.36;36.49;102819.06;4965433;28;20212;-75
2024/01/09 00:59:00;;;;;;;6.55;4.07;;;;;;;-2.36;36.51;102822.63;4949049;28;20101;-75
2024/01/09 01:01:28;;;;;;;8.63;4.57;;;;;;;-2.37;36.57;102817.31;4964595;28;20042;-75
2024/01/09 01:03:56;;;;;;;7.43;3.72;;;;;;;-2.37;36.71;102820.88;4964937;28;20576;-74
2024/01/09 01:06:23;;;;;;;8.32;3.83;;;;;;;-2.38;36.60;102819.09;4966239;28;20418;-75
2024/01/09 01:08:53;;;;;;;6.55;3.92;;;;;;;-2.37;36.65;102817.31;4969173;28;20051;-75
2024/01/09 01:11:21;;;;;;;8.05;4.35;;;;;;;-2.39;36.85;102825.34;4966926;28;20058;-75
2024/01/09 01:13:49;;;;;;;7.32;4.05;;;;;;;-2.38;36.77;102818.19;4967208;28;20406;-74
2024/01/09 01:16:17;;;;;;;7.55;4.68;;;;;;;-2.41;36.66;102816.41;4967863;28;20043;-75
2024/01/09 01:18:45;;;;;;;8.20;4.50;;;;;;;-2.41;36.64;102818.19;4948432;29;20047;-75
2024/01/09 01:21:15;;;;;;;8.10;4.47;;;;;;;-2.44;36.48;102813.72;4959866;28;20050;-75
2024/01/09 01:23:43;;;;;;;6.00;4.20;;;;;;;-2.44;36.70;102816.41;4963620;28;20577;-75
2024/01/09 01:26:12;;;;;;;8.30;4.47;;;;;;;-2.45;36.53;102819.97;4947670;28;20106;-75
2024/01/09 01:28:41;;;;;;;8.07;4.38;;;;;;;-2.47;36.67;102821.78;4967344;28;20098;-74
2024/01/09 01:31:09;;;;;;;7.22;4.15;;;;;;;-2.48;36.72;102821.78;4946381;28;20074;-75
2024/01/09 01:33:36;;;;;;;6.20;4.10;;;;;;;-2.50;36.66;102827.16;4961206;28;20050;-75
2024/01/09 01:36:05;;;;;;;8.85;5.00;;;;;;;-2.51;36.54;102825.38;4963069;28;20137;-75
2024/01/09 01:38:33;;;;;;;9.15;4.10;;;;;;;-2.51;36.63;102827.16;4968458;28;20149;-75
2024/01/09 01:41:01;;;;;;;7.25;4.43;;;;;;;-2.54;36.43;102819.13;4959562;28;20045;-75
2024/01/09 01:43:30;;;;;;;8.40;4.00;;;;;;;-2.54;36.39;102824.50;4973921;28;20047;-75
2024/01/09 01:45:58;;;;;;;7.43;4.30;;;;;;;-2.54;36.58;102829.84;4964117;28;20522;-75
2024/01/09 01:48:26;;;;;;;8.38;4.22;;;;;;;-2.55;36.54;102826.28;4957139;28;20050;-75
2024/01/09 01:50:55;;;;;;;7.82;4.22;;;;;;;-2.54;36.85;102830.75;4965974;28;20121;-75
2024/01/09 01:53:23;;;;;;;7.45;4.30;;;;;;;-2.54;36.84;102824.50;4952240;28;20130;-75
2024/01/09 01:55:52;;;;;;;6.60;3.88;;;;;;;-2.55;36.78;102823.59;4967338;28;20054;-75
2024/01/09 01:58:20;;;;;;;8.70;4.70;;;;;;;-2.54;36.61;102828.06;4968033;28;20051;-75
2024/01/09 02:00:50;;;;;;;7.80;4.50;;;;;;;-2.53;36.75;102823.59;4961301;28;20110;-75
2024/01/09 02:03:18;;;;;;;8.18;4.40;;;;;;;-2.55;36.77;102828.06;4946762;28;20046;-75
2024/01/09 02:05:48;;;;;;;7.22;4.28;;;;;;;-2.55;36.51;102820.91;4959397;28;20253;-75
2024/01/09 02:08:22;;;;;;;6.85;4.15;;;;;;;-2.56;36.38;102821.81;4966804;28;20113;-76
2024/01/09 02:10:50;;;;;;;8.23;4.07;;;;;;;-2.56;36.70;102823.59;4965674;28;20039;-75
2024/01/09 02:13:19;;;;;;;6.65;4.20;;;;;;;-2.58;36.77;102822.69;4962306;28;20039;-75
2024/01/09 02:15:47;;;;;;;7.35;4.15;;;;;;;-2.58;36.65;102818.22;4961460;28;20066;-75
2024/01/09 02:18:17;;;;;;;7.00;3.78;;;;;;;-2.57;36.65;102813.75;4952131;28;20419;-75
2024/01/09 02:20:45;;;;;;;8.35;4.72;;;;;;;-2.57;36.65;102821.81;4946246;28;20054;-75
2024/01/09 02:23:13;;;;;;;7.60;4.00;;;;;;;-2.58;36.60;102811.97;4942570;28;20051;-75
2024/01/09 02:25:41;;;;;;;8.20;4.43;;;;;;;-2.58;36.71;102810.19;4959104;28;20096;-75
2024/01/09 02:28:15;;;;;;;7.15;4.03;;;;;;;-2.57;36.78;102817.34;4951614;28;20086;-75
2024/01/09 02:30:45;;;;;;;7.13;3.70;;;;;;;-2.58;36.82;102811.97;4965197;28;20536;-76
2024/01/09 02:33:13;;;;;;;7.43;3.72;;;;;;;-2.58;36.94;102818.22;4967679;28;20046;-75
2024/01/09 02:35:41;;;;;;;7.90;4.20;;;;;;;-2.57;37.12;102814.66;4966810;28;20053;-75
2024/01/09 02:38:09;;;;;;;7.25;3.75;;;;;;;-2.57;36.86;102813.75;4947020;28;20062;-75
2024/01/09 02:40:37;;;;;;;6.95;3.97;;;;;;;-2.56;37.07;102827.19;4964829;28;20049;-75
2024/01/09 02:43:05;;;;;;;8.02;4.40;;;;;;;-2.57;36.68;102827.16;4948572;28;20113;-75
2024/01/09 02:45:33;;;;;;;6.80;3.80;;;;;;;-2.56;36.68;102827.19;4965304;28;20121;-75
2024/01/09 02:48:03;;;;;;;7.15;4.00;;;;;;;-2.55;36.61;102820.91;4942717;29;20057;-75
2024/01/09 02:50:31;;;;;;;6.53;3.78;;;;;;;-2.57;37.00;102820.03;4945720;28;20414;-75
2024/01/09 02:52:59;;;;;;;6.95;4.00;;;;;;;-2.59;36.75;102819.13;4971002;28;20046;-75
2024/01/09 02:55:27;;;;;;;7.72;4.10;;;;;;;-2.57;36.82;102819.13;4947763;28;20043;-75
2024/01/09 02:57:54;;;;;;;7.10;3.92;;;;;;;-2.59;36.80;102815.56;4965145;28;20125;-75
2024/01/09 03:00:22;;;;;;;6.55;3.80;;;;;;;-2.61;36.71;102815.53;4973865;28;20498;-75
2024/01/09 03:02:50;;;;;;;6.28;3.55;;;;;;;-2.60;37.06;102809.28;4969753;28;20174;-75
2024/01/09 03:05:20;;;;;;;7.45;4.18;;;;;;;-2.61;36.38;102812.00;4973253;28;20050;-75
2024/01/09 03:07:48;;;;;;;7.18;3.70;;;;;;;-2.62;37.11;102810.22;4967821;28;20503;-75
2024/01/09 03:10:16;;;;;;;7.53;4.60;;;;;;;-2.64;36.56;102812.00;4960450;28;20043;-75
2024/01/09 03:12:44;;;;;;;6.13;3.63;;;;;;;-2.64;36.60;102809.31;4943751;28;20051;-75
2024/01/09 03:15:12;;;;;;;7.03;3.63;;;;;;;-2.66;37.06;102808.41;4965755;28;20098;-75
2024/01/09 03:17:40;;;;;;;6.82;4.13;;;;;;;-2.68;36.90;102805.72;4950607;28;20150;-75
2024/01/09 03:20:10;;;;;;;7.97;4.22;;;;;;;-2.67;36.75;102802.16;4957135;28;20471;-75
2024/01/09 03:22:39;;;;;;;6.45;3.92;;;;;;;-2.67;36.68;102806.63;4944708;28;20090;-75
2024/01/09 03:25:08;;;;;;;6.90;3.80;;;;;;;-2.67;36.78;102803.94;4966142;28;20612;-75
2024/01/09 03:27:35;;;;;;;8.00;3.72;;;;;;;-2.68;36.59;102807.53;4966869;28;20582;-75
2024/01/09 03:30:04;;;;;;;5.97;3.38;;;;;;;-2.68;36.57;102803.06;4963504;28;20071;-74
2024/01/09 03:32:33;;;;;;;7.40;4.18;;;;;;;-2.69;36.77;102798.59;4966683;28;20046;-75
2024/01/09 03:35:01;;;;;;;5.72;3.70;;;;;;;-2.69;36.54;102798.59;4945740;28;20710;-75
2024/01/09 03:37:34;;;;;;;6.90;3.80;;;;;;;-2.71;36.86;102806.66;4950054;28;20046;-75
2024/01/09 03:40:04;;;;;;;7.13;3.85;;;;;;;-2.70;36.61;102802.19;4953341;28;20278;-75
2024/01/09 03:42:32;;;;;;;6.60;3.53;;;;;;;-2.72;36.58;102807.56;4974290;28;20047;-76
2024/01/09 03:45:00;;;;;;;7.18;4.05;;;;;;;-2.72;36.54;102807.56;4974344;28;20046;-75
2024/01/09 03:47:28;;;;;;;7.13;3.83;;;;;;;-2.71;36.54;102805.75;4968770;28;20050;-75
2024/01/09 03:49:56;;;;;;;7.32;3.55;;;;;;;-2.72;36.69;102796.84;4959490;28;20039;-75
2024/01/09 03:52:24;;;;;;;6.78;3.70;;;;;;;-2.72;36.61;102798.63;4966903;28;20130;-75
2024/01/09 03:54:52;;;;;;;6.38;3.90;;;;;;;-2.74;36.54;102803.97;4975875;28;20179;-75
2024/01/09 03:57:21;;;;;;;7.65;3.88;;;;;;;-2.73;36.39;102797.72;4974084;28;20047;-74
2024/01/09 03:59:49;;;;;;;6.88;3.90;;;;;;;-2.74;36.70;102803.06;4971043;28;20572;-74
2024/01/09 04:02:17;;;;;;;7.05;3.90;;;;;;;-2.75;36.68;102803.97;4958538;28;20514;-75
2024/01/09 04:04:45;;;;;;;8.52;4.18;;;;;;;-2.77;36.33;102812.00;4963565;28;20295;-74
2024/01/09 04:07:13;;;;;;;7.30;3.72;;;;;;;-2.77;36.49;102806.66;4958642;28;20414;-74
2024/01/09 04:09:41;;;;;;;6.88;3.80;;;;;;;-2.76;36.42;102802.19;4972989;28;20327;-75
2024/01/09 04:12:09;;;;;;;6.18;3.63;;;;;;;-2.76;36.65;102805.75;4971550;28;20038;-75
2024/01/09 04:14:38;;;;;;;6.60;3.30;;;;;;;-2.76;36.33;102800.38;4974501;28;20045;-75
2024/01/09 04:17:06;;;;;;;6.57;3.75;;;;;;;-2.76;36.82;102802.19;4968818;28;20046;-74
2024/01/09 04:19:37;;;;;;;6.22;3.47;;;;;;;-2.74;36.46;102800.41;4978972;28;20058;-74
2024/01/09 04:22:06;;;;;;;7.22;3.80;;;;;;;-2.74;36.53;102803.06;4972200;28;20054;-74
2024/01/09 04:24:34;;;;;;;5.88;3.25;;;;;;;-2.73;36.45;102800.41;4970915;28;20518;-75
2024/01/09 04:27:03;;;;;;;5.50;3.55;;;;;;;-2.70;36.71;102799.50;4966784;28;20039;-74
2024/01/09 04:29:31;;;;;;;7.03;3.30;;;;;;;-2.71;36.48;102790.56;4961943;28;20064;-75
2024/01/09 04:32:01;;;;;;;7.32;3.70;;;;;;;-2.69;36.42;102797.72;4959333;28;20042;-75
2024/01/09 04:34:29;;;;;;;6.00;3.63;;;;;;;-2.69;36.61;102797.72;4972641;28;20062;-74
2024/01/09 04:36:57;;;;;;;6.32;3.58;;;;;;;-2.68;36.35;102800.38;4959879;28;20134;-75
2024/01/09 04:39:25;;;;;;;7.72;4.30;;;;;;;-2.68;36.69;102791.44;4973757;28;20047;-75
2024/01/09 04:41:52;;;;;;;7.28;4.00;;;;;;;-2.67;36.52;102790.56;4961109;28;20521;-75
2024/01/09 04:44:21;;;;;;;6.25;3.58;;;;;;;-2.67;36.85;102791.44;4968536;28;20075;-75
2024/01/09 04:46:49;;;;;;;7.10;3.75;;;;;;;-2.66;36.74;102789.66;4975710;28;20042;-75
2024/01/09 04:49:18;;;;;;;6.18;3.95;;;;;;;-2.63;36.46;102787.88;4971898;28;20043;-75
2024/01/09 04:51:47;;;;;;;6.78;3.70;;;;;;;-2.63;36.82;102795.91;4967516;28;20058;-75
2024/01/09 04:54:14;;;;;;;7.47;4.03;;;;;;;-2.61;37.07;102795.91;4968683;28;20446;-74
2024/01/09 04:56:43;;;;;;;6.07;3.50;;;;;;;-2.60;36.79;102789.63;4957474;28;20054;-74
2024/01/09 04:59:11;;;;;;;6.47;3.50;;;;;;;-2.59;36.87;102792.31;4957604;28;20046;-74
2024/01/09 05:01:39;;;;;;;6.65;3.85;;;;;;;-2.56;36.93;102794.13;4973468;28;20043;-75
2024/01/09 05:04:07;;;;;;;5.97;3.35;;;;;;;-2.54;37.22;102787.84;4991669;28;20069;-74
2024/01/09 05:06:38;;;;;;;5.65;3.50;;;;;;;-2.52;37.06;102782.47;4992008;28;20042;-76
2024/01/09 05:09:06;;;;;;;6.88;3.72;;;;;;;-2.51;36.96;102779.78;4992429;28;20050;-75
2024/01/09 05:11:34;;;;;;;6.97;3.95;;;;;;;-2.50;36.87;102781.56;4992614;28;20050;-75
2024/01/09 05:14:03;;;;;;;6.20;3.58;;;;;;;-2.49;36.97;102782.47;4974463;28;20061;-75
2024/01/09 05:16:31;;;;;;;7.28;3.88;;;;;;;-2.50;36.67;102778.91;4991818;28;20051;-75
2024/01/09 05:18:59;;;;;;;5.72;3.65;;;;;;;-2.50;36.76;102776.22;4991542;28;20475;-75
2024/01/09 05:21:27;;;;;;;6.50;3.63;;;;;;;-2.52;36.74;102775.31;4991676;28;20062;-75
2024/01/09 05:23:56;;;;;;;7.78;3.90;;;;;;;-2.52;36.38;102778.00;4991977;28;20141;-75
2024/01/09 05:26:24;;;;;;;7.00;3.92;;;;;;;-2.54;36.20;102771.78;4991718;28;20532;-75
2024/01/09 05:28:52;;;;;;;6.13;3.80;;;;;;;-2.57;36.42;102776.25;4974081;28;20058;-75
2024/01/09 05:31:20;;;;;;;7.07;3.83;;;;;;;-2.58;36.49;102774.44;4991857;28;20101;-73
2024/01/09 05:33:48;;;;;;;7.32;3.65;;;;;;;-2.60;36.74;102770.88;4974228;28;20038;-74
2024/01/09 05:36:22;;;;;;;7.15;3.85;;;;;;;-2.61;36.48;102778.03;4974397;28;20054;-74
2024/01/09 05:38:50;;;;;;;;;;;;;;;-2.79;36.40;102767.38;4992468;28;20050;-73
2024/01/09 05:41:23;;;;;;;5.47;2.90;;;;;;;-2.63;37.07;102770.91;4989810;28;19944;-73
2024/01/09 05:43:51;;;;;;;;;;;;;;;-2.80;36.92;102768.25;4991504;28;20043;-73
2024/01/09 05:46:19;;;;;;;6.20;3.35;;;;;;;-2.63;37.13;102773.59;4991484;28;19921;-74
2024/01/09 05:48:46;;;;;;;6.25;3.47;;;;;;;-2.58;37.06;102782.50;4991429;28;20042;-74
2024/01/09 05:51:15;;;;;;;7.07;3.60;;;;;;;-2.56;37.11;102783.38;4990989;28;20038;-73
2024/01/09 05:53:43;;;;;;;6.32;3.53;;;;;;;-2.55;37.04;102783.41;4991625;28;20536;-74
2024/01/09 05:56:11;;;;;;;6.22;3.80;;;;;;;-2.53;37.08;102780.72;4991330;28;20049;-74
2024/01/09 05:58:40;;;;;;;7.15;3.85;;;;;;;-2.52;36.91;102775.31;4991363;28;20050;-74
2024/01/09 06:01:08;;;;;;;7.90;3.78;;;;;;;-2.51;36.97;102777.09;4973393;28;20065;-74
2024/01/09 06:03:36;;;;;;;6.63;3.65;;;;;;;-2.49;36.85;102780.69;4973775;28;20046;-74
2024/01/09 06:06:04;;;;;;;6.85;3.60;;;;;;;-2.47;37.10;102769.97;4990901;28;20050;-73
2024/01/09 06:08:33;;;;;;;6.40;3.42;;;;;;;-2.47;37.23;102773.53;4974045;28;20054;-74
2024/01/09 06:11:01;;;;;;;6.40;3.75;;;;;;;-2.44;37.27;102777.97;4990853;28;20042;-74
2024/01/09 06:13:29;;;;;;;6.63;3.85;;;;;;;-2.43;37.12;102779.75;4990902;28;20046;-74
2024/01/09 06:15:58;;;;;;;5.47;3.42;;;;;;;-2.41;36.70;102783.34;4989864;28;20463;-74
2024/01/09 06:18:26;;;;;;;6.85;3.67;;;;;;;-2.41;37.16;102786.91;4980701;28;20069;-75
2024/01/09 06:20:54;;;;;;;6.05;3.58;;;;;;;-2.40;37.22;102791.38;4975916;28;20050;-74
2024/01/09 06:23:22;;;;;;;6.22;3.22;;;;;;;-2.40;36.93;102783.34;4965183;28;20080;-75
2024/01/09 06:25:50;;;;;;;5.97;3.60;;;;;;;-2.39;36.86;102782.44;4968930;28;20049;-75
2024/01/09 06:28:18;;;;;;;6.75;3.42;;;;;;;-2.37;37.04;102779.78;4970961;28;20054;-74
2024/01/09 06:30:46;;;;;;;6.65;3.40;;;;;;;-2.37;37.01;102790.50;4956174;28;20406;-74
2024/01/09 06:33:15;;;;;;;7.18;4.18;;;;;;;-2.38;36.71;102792.28;4969855;28;20039;-74
2024/01/09 06:35:43;;;;;;;8.27;4.35;;;;;;;-2.40;36.94;102790.50;4954159;28;20085;-74
2024/01/09 06:38:12;;;;;;;8.05;4.10;;;;;;;-2.42;36.59;102798.53;4971087;28;20541;-75
2024/01/09 06:40:39;;;;;;;7.93;4.30;;;;;;;-2.44;36.33;102792.28;4972699;28;20039;-74
2024/01/09 06:43:07;;;;;;;8.65;4.45;;;;;;;-2.48;36.69;102787.84;4957199;28;20046;-75
2024/01/09 06:45:35;;;;;;;6.95;4.13;;;;;;;-2.49;36.79;102790.50;4945259;28;20049;-74
2024/01/09 06:48:04;;;;;;;6.97;3.78;;;;;;;-2.50;36.76;102797.66;4970870;28;20126;-74
2024/01/09 06:50:34;;;;;;;7.18;4.00;;;;;;;-2.50;36.59;102797.66;4969296;28;20517;-74
2024/01/09 06:53:05;;;;;;;7.70;4.05;;;;;;;-2.53;36.84;102800.34;4952955;28;20066;-74
2024/01/09 06:55:33;;;;;;;10.32;4.32;;;;;;;-2.52;36.83;102795.88;4957401;28;20461;-74
2024/01/09 06:58:03;;;;;;;9.18;4.25;;;;;;;-2.51;36.69;102794.97;4967251;28;20047;-74
2024/01/09 07:00:31;;;;;;;6.85;4.35;;;;;;;-2.54;36.79;102801.25;4969706;28;20618;-75
2024/01/09 07:02:59;;;;;;;8.32;4.38;;;;;;;-2.54;36.50;102792.31;4965197;28;20047;-75
2024/01/09 07:05:27;;;;;;;7.20;4.20;;;;;;;-2.56;36.47;102799.47;4971285;28;20045;-75
2024/01/09 07:07:56;;;;;;;6.63;4.07;;;;;;;-2.58;36.14;102799.47;4963752;28;20126;-74
2024/01/09 07:10:24;;;;;;;6.68;3.85;;;;;;;-2.60;36.72;102798.56;4949275;28;20078;-75
2024/01/09 07:12:52;;;;;;;7.28;4.03;;;;;;;-2.61;36.75;102802.16;4960127;28;20046;-76
2024/01/09 07:15:20;;;;;;;8.25;4.18;;;;;;;-2.61;36.64;102801.28;4956839;28;20042;-74
2024/01/09 07:17:49;;;;;;;9.63;4.43;;;;;;;-2.61;36.78;102814.69;4953243;28;20043;-74
2024/01/09 07:20:17;;;;;;;8.55;4.90;;;;;;;-2.62;36.95;102810.22;4965971;28;20129;-76
2024/01/09 07:22:45;;;;;;;7.57;4.13;;;;;;;-2.62;36.91;102819.16;4949361;28;20043;-74
2024/01/09 07:25:18;;;;;;;8.27;4.13;;;;;;;-2.61;36.67;102818.22;4946567;28;20083;-74
2024/01/09 07:27:45;;;;;;;8.13;4.00;;;;;;;-2.61;36.78;102820.91;4970891;28;20074;-74
2024/01/09 07:30:14;;;;;;;7.93;4.45;;;;;;;-2.60;36.87;102819.13;4974143;28;20129;-75
2024/01/09 07:32:42;;;;;;;6.60;3.80;;;;;;;-2.60;36.80;102822.69;4959367;28;20046;-75
2024/01/09 07:35:12;;;;;;;8.80;4.63;;;;;;;-2.58;36.93;102822.69;4980272;28;20138;-75
2024/01/09 07:37:40;;;;;;;8.73;4.50;;;;;;;-2.58;36.93;102820.03;4967207;28;20101;-75
2024/01/09 07:40:10;;;;;;;7.43;3.95;;;;;;;-2.56;36.89;102828.97;4974388;28;20583;-74
2024/01/09 07:42:40;;;;;;;9.60;5.20;;;;;;;-2.56;36.64;102831.63;4969007;28;20050;-75
2024/01/09 07:45:20;;;;;;;9.63;4.43;;;;;;;-2.56;37.05;102834.31;4971662;28;20042;-74
2024/01/09 07:47:48;;;;;;;7.82;4.32;;;;;;;-2.55;37.03;102834.31;4969901;28;20049;-75
2024/01/09 07:50:16;;;;;;;7.90;4.53;;;;;;;-2.54;37.11;102836.13;4957418;28;20057;-75
2024/01/09 07:52:44;;;;;;;6.95;4.32;;;;;;;-2.53;37.01;102823.59;4976010;28;20046;-74
2024/01/09 07:55:12;;;;;;;9.25;4.75;;;;;;;-2.53;36.97;102832.50;4952293;28;20078;-75
2024/01/09 07:57:41;;;;;;;8.18;4.70;;;;;;;-2.51;36.77;102835.19;4967621;28;20043;-74
2024/01/09 08:00:10;;;;;;;8.70;4.47;;;;;;;-2.51;36.74;102836.09;4950283;28;20078;-75
2024/01/09 08:02:38;;;;;;;7.90;4.13;;;;;;;-2.51;36.74;102835.19;4946913;28;20566;-74
2024/01/09 08:05:07;;;;;;;8.98;4.55;;;;;;;-2.50;37.14;102839.66;4969164;28;20483;-74
2024/01/09 08:07:35;;;;;;;8.35;4.30;;;;;;;-2.50;36.77;102836.97;4969272;28;20101;-74
2024/01/09 08:10:03;;;;;;;7.78;4.38;;;;;;;-2.50;36.73;102834.31;4969790;28;20049;-74
2024/01/09 08:12:31;;;;;;;6.22;3.88;;;;;;;-2.49;36.54;102839.66;4965370;28;20048;-75
2024/01/09 08:15:00;;;;;;;7.43;4.20;;;;;;;-2.50;36.57;102835.19;4950149;28;20100;-74
2024/01/09 08:17:28;;;;;;;9.95;4.90;;;;;;;-2.50;36.85;102839.66;4970642;28;20446;-74
2024/01/09 08:19:57;;;;;;;8.00;4.35;;;;;;;-2.51;36.79;102846.81;4967037;28;20079;-74
2024/01/09 08:22:25;;;;;;;7.55;3.83;;;;;;;-2.52;36.76;102845.03;4972540;28;20307;-74
2024/01/09 08:24:53;;;;;;;9.85;4.85;;;;;;;-2.53;36.43;102834.34;4973047;28;20506;-73
2024/01/09 08:27:20;;;;;;;10.10;5.57;;;;;;;-2.55;36.60;102833.44;4951198;29;20047;-74
2024/01/09 08:29:48;;;;;;;8.85;5.00;;;;;;;-2.57;36.12;102836.09;4959340;28;20515;-74
2024/01/09 08:32:18;;;;;;;8.40;4.80;;;;;;;-2.60;36.36;102825.38;4989180;28;20053;-74
2024/01/09 08:34:47;;;;;;;10.85;5.35;;;;;;;-2.65;36.20;102832.53;4973214;28;20133;-75
2024/01/09 08:37:15;;;;;;;8.45;4.88;;;;;;;-2.69;36.12;102827.22;4972973;28;20054;-75
2024/01/09 08:39:43;;;;;;;9.77;4.55;;;;;;;-2.74;36.34;102832.56;4970974;28;20395;-74
2024/01/09 08:42:11;;;;;;;8.57;4.70;;;;;;;-2.79;35.99;102829.91;4960992;28;20047;-75
2024/01/09 08:44:39;;;;;;;7.43;4.22;;;;;;;-2.82;36.17;102834.34;4953832;28;20481;-75
2024/01/09 08:47:06;;;;;;;8.68;4.85;;;;;;;-2.87;36.18;102834.38;4968458;28;20156;-78
2024/01/09 08:49:36;;;;;;;6.13;4.05;;;;;;;-2.88;35.88;102832.56;4958615;28;20058;-79
2024/01/09 08:52:05;;;;;;;8.95;4.50;;;;;;;-2.94;36.28;102832.56;4975968;28;20138;-78
2024/01/09 08:54:33;;;;;;;7.38;4.38;;;;;;;-2.95;36.37;102836.16;4976221;28;20079;-78
2024/01/09 08:57:01;;;;;;;8.10;4.93;;;;;;;-2.96;36.18;102834.38;4958199;28;20059;-78
2024/01/09 08:59:29;;;;;;;9.38;4.50;;;;;;;-2.96;36.36;102838.81;4959367;28;20150;-78
2024/01/09 09:01:57;;;;;;;7.82;4.03;;;;;;;-2.95;36.64;102843.28;4974910;28;20054;-78
2024/01/09 09:04:25;;;;;;;7.57;3.90;;;;;;;-2.94;36.58;102847.78;4975071;28;20129;-78
2024/01/09 09:06:54;;;;;;;7.28;3.85;;;;;;;-2.94;36.66;102843.28;4958298;28;20046;-79
2024/01/09 09:09:22;;;;;;;10.95;4.50;;;;;;;-2.92;36.48;102848.63;4975351;28;20050;-79
2024/01/09 09:11:50;;;;;;;8.02;4.63;;;;;;;-2.90;36.63;102845.06;4958168;28;20562;-79
2024/01/09 09:14:18;;;;;;;7.97;4.13;;;;;;;-2.87;36.98;102844.19;4958182;28;20038;-79
2024/01/09 09:16:46;;;;;;;7.60;4.47;;;;;;;-2.83;37.03;102843.28;4975202;28;20047;-77
2024/01/09 09:19:14;;;;;;;8.40;4.57;;;;;;;-2.81;37.10;102855.78;4958172;28;20047;-79
2024/01/09 09:21:42;;;;;;;7.82;4.68;;;;;;;-2.76;36.95;102847.72;4958479;28;20043;-77
2024/01/09 09:24:11;;;;;;;9.02;4.70;;;;;;;-2.71;36.95;102848.66;4958639;28;20058;-77
2024/01/09 09:26:39;;;;;;;7.85;4.43;;;;;;;-2.66;37.14;102851.31;4975849;28;20047;-76
2024/01/09 09:29:07;;;;;;;8.15;4.13;;;;;;;-2.61;37.10;102853.06;4958681;28;20418;-77
2024/01/09 09:31:50;;;;;;;8.27;4.00;;;;;;;-2.58;37.32;102838.78;4958459;28;20051;-78
2024/01/09 09:34:18;;;;;;;8.48;4.88;;;;;;;-2.50;36.88;102847.72;4975788;28;20047;-80
2024/01/09 09:36:47;;;;;;;7.65;4.32;;;;;;;-2.42;36.88;102840.53;4975230;28;20093;-77
2024/01/09 09:39:16;;;;;;;8.38;4.40;;;;;;;-2.38;36.96;102851.28;4958297;28;20051;-79
2024/01/09 09:41:46;;;;;;;10.07;4.75;;;;;;;-2.35;36.76;102850.34;4954617;28;20039;-80
2024/01/09 09:44:15;;;;;;;9.75;4.70;;;;;;;-2.27;36.98;102859.28;4955158;28;20043;-80
2024/01/09 09:46:45;;;;;;;8.82;4.93;;;;;;;-2.22;36.73;102861.97;4952858;28;20313;-80
2024/01/09 09:49:14;;;;;;;8.60;4.80;;;;;;;-2.17;36.97;102857.47;4958836;28;20039;-79
2024/01/09 09:51:45;;;;;;;8.23;4.43;;;;;;;-2.14;36.63;102855.69;4968749;28;20486;-79
2024/01/09 09:54:14;;;;;;;8.23;4.70;;;;;;;-2.10;36.66;102849.38;4964976;28;20525;-79
2024/01/09 09:56:44;;;;;;;8.30;4.90;;;;;;;-2.04;36.44;102853.88;4952402;28;20059;-79
2024/01/09 09:59:13;;;;;;;7.75;4.85;;;;;;;-2.02;36.85;102850.25;4946506;28;20043;-79
2024/01/09 10:01:42;;;;;;;7.88;4.32;;;;;;;-1.98;36.75;102846.69;4968245;28;20622;-79
2024/01/09 10:04:26;;;;;;;9.40;4.60;;;;;;;-1.91;35.83;102852.00;4953278;28;20050;-78
2024/01/09 10:06:56;;;;;;;7.50;4.78;;;;;;;-1.90;36.55;102845.75;4952324;28;20118;-79
2024/01/09 10:09:30;;;;;;;8.82;4.85;;;;;;;-1.85;35.94;102847.50;4960037;28;20549;-80
2024/01/09 10:11:59;;;;;;;8.90;4.93;;;;;;;-1.83;36.38;102839.44;4970236;28;20114;-78
2024/01/09 10:14:27;;;;;;;10.63;5.68;;;;;;;-1.80;36.50;102840.34;4947913;28;20042;-79
2024/01/09 10:16:56;;;;;;;7.88;4.90;;;;;;;-1.75;36.50;102841.19;4968728;28;20160;-78
2024/01/09 10:19:24;;;;;;;8.05;4.70;;;;;;;-1.73;36.30;102839.41;4949097;28;20454;-79
2024/01/09 10:21:52;;;;;;;8.98;5.28;;;;;;;-1.70;36.56;102839.38;4971021;28;20062;-79
2024/01/09 10:24:20;;;;;;;8.85;4.90;;;;;;;-1.67;36.55;102841.16;4953690;28;20570;-79
2024/01/09 10:26:52;;;;;;;8.20;4.88;;;;;;;-1.63;35.89;102840.25;4952198;28;20054;-79
2024/01/09 10:29:21;;;;;;;7.70;4.40;;;;;;;-1.60;35.94;102838.44;4954077;28;20049;-79
2024/01/09 10:31:49;;;;;;;9.23;4.68;;;;;;;-1.58;36.37;102836.63;4954429;28;20121;-77
2024/01/09 10:34:17;;;;;;;7.88;4.85;;;;;;;-1.56;36.04;102836.63;4978760;28;20038;-78
2024/01/09 10:36:45;;;;;;;7.93;5.15;;;;;;;-1.54;36.33;102828.56;4972487;28;20251;-78
2024/01/09 10:39:15;;;;;;;8.50;4.72;;;;;;;-1.48;36.21;102833.91;4949116;28;20081;-77
2024/01/09 10:41:43;;;;;;;8.07;4.35;;;;;;;-1.45;36.24;102824.00;4949065;28;20047;-78
2024/01/09 10:44:15;;;;;;;7.93;4.35;;;;;;;-1.38;35.42;102824.88;4960160;28;20070;-78
2024/01/09 10:46:45;;;;;;;7.80;4.50;;;;;;;-1.37;36.00;102816.78;4962136;28;20518;-79
2024/01/09 10:49:15;;;;;;;6.78;4.25;;;;;;;-1.31;35.95;102810.50;4953511;28;20105;-78
2024/01/09 10:51:49;;;;;;;8.10;4.63;;;;;;;-1.30;35.95;102797.06;4970953;28;20078;-78
2024/01/09 10:54:19;;;;;;;8.10;4.82;;;;;;;-1.22;35.76;102805.06;4964295;28;20125;-78
2024/01/09 10:56:49;;;;;;;9.10;4.85;;;;;;;-1.20;36.06;102806.81;4962615;28;20062;-78
2024/01/09 10:59:17;;;;;;;8.40;4.78;;;;;;;-1.15;35.60;102800.53;4952436;28;20051;-79
2024/01/09 11:01:46;;;;;;;8.70;4.85;;;;;;;-1.15;35.18;102796.06;4947977;28;20054;-78
2024/01/09 11:04:14;;;;;;;7.60;5.03;;;;;;;-1.11;35.67;102795.09;4965092;28;20248;-78
2024/01/09 11:06:44;;;;;;;8.63;4.72;;;;;;;-1.07;35.74;102799.56;4948946;28;20589;-78
2024/01/09 11:09:16;;;;;;;8.75;4.85;;;;;;;-1.06;35.92;102787.03;4976393;28;20051;-78
2024/01/09 11:11:46;;;;;;;10.82;5.07;;;;;;;-1.00;36.09;102781.59;4973572;28;20407;-79
2024/01/09 11:14:15;;;;;;;9.82;5.05;;;;;;;-0.95;35.91;102780.63;4978900;28;20038;-79
2024/01/09 11:16:46;;;;;;;11.07;5.40;;;;;;;-0.92;35.81;102774.34;4971966;28;20078;-79
2024/01/09 11:19:16;;;;;;;9.85;5.00;;;;;;;-0.91;34.94;102766.28;4984545;28;20038;-78
2024/01/09 11:21:44;;;;;;;7.55;4.97;;;;;;;-0.88;35.37;102765.34;4950951;28;20069;-78
2024/01/09 11:24:12;;;;;;;8.25;4.68;;;;;;;-0.84;35.82;102759.03;4957397;28;20169;-78
2024/01/09 11:26:41;;;;;;;6.90;4.57;;;;;;;-0.84;35.74;102762.63;4950492;28;20462;-79
2024/01/09 11:29:10;;;;;;;8.38;4.70;;;;;;;-0.82;35.53;102752.75;4974894;28;20043;-78
2024/01/09 11:31:39;;;;;;;10.00;4.80;;;;;;;-0.82;34.83;102752.75;4972333;28;20043;-79
2024/01/09 11:34:07;;;;;;;7.32;4.10;;;;;;;-0.80;35.17;102742.84;4952288;28;20134;-79